Time;durP1;ratioP1;P1;durP2;ratioP2;P2;SDS_P1;SDS_P2;PMS_P1;PMS_P2;Temp;Humidity;BMP_temperature;BMP_pressure;BME280_temperature;BME280_humidity;BME280_pressure;Samples;Min_cycle;Max_cycle;Signal;HPM_P1;HPM_P2
2023/10/10 00:00:47;;;;;;;14.30;8.60;;;15.80;95.70;;;;;;4982881;28;20046;-84
2023/10/10 00:03:14;;;;;;;14.00;8.98;;;15.70;95.60;;;;;;4965122;28;20042;-82
2023/10/10 00:05:40;;;;;;;12.23;8.70;;;15.70;95.70;;;;;;4980948;28;20465;-82
2023/10/10 00:08:10;;;;;;;12.85;7.95;;;15.70;95.70;;;;;;4996849;28;20049;-82
2023/10/10 00:10:43;;;;;;;11.30;8.35;;;15.70;95.60;;;;;;4965391;28;20085;-80
2023/10/10 00:13:11;;;;;;;10.40;8.30;;;15.70;95.70;;;;;;4997300;28;20046;-79
2023/10/10 00:15:49;;;;;;;13.32;7.90;;;15.70;95.80;;;;;;4965377;28;20143;-81
2023/10/10 00:18:18;;;;;;;14.45;8.75;;;15.70;95.90;;;;;;4996804;28;20052;-83
2023/10/10 00:20:57;;;;;;;12.40;8.07;;;15.70;95.90;;;;;;4992785;28;20114;-78
2023/10/10 00:23:22;;;;;;;11.80;7.38;;;15.70;95.90;;;;;;5017181;28;20049;-81
2023/10/10 00:25:49;;;;;;;12.15;8.75;;;15.60;95.90;;;;;;5000640;28;20504;-81
2023/10/10 00:28:18;;;;;;;8.75;7.75;;;15.60;95.90;;;;;;4985474;28;20441;-81
2023/10/10 00:30:45;;;;;;;10.35;7.60;;;15.60;95.90;;;;;;5001132;28;20045;-79
2023/10/10 00:33:17;;;;;;;16.40;8.38;;;15.60;95.80;;;;;;4999915;28;20041;-80
2023/10/10 00:35:44;;;;;;;10.27;8.20;;;15.70;95.90;;;;;;5016735;28;20093;-79
2023/10/10 00:38:16;;;;;;;11.05;8.95;;;15.60;96.00;;;;;;5003541;28;20511;-84
2023/10/10 00:40:46;;;;;;;13.35;8.10;;;15.60;96.00;;;;;;5017215;28;20120;-80
2023/10/10 00:43:22;;;;;;;10.43;8.02;;;15.60;96.00;;;;;;4999672;28;20493;-84
2023/10/10 00:45:57;;;;;;;9.82;6.80;;;15.60;96.00;;;;;;4999631;28;20056;-81
2023/10/10 00:48:29;;;;;;;9.00;7.40;;;15.50;96.00;;;;;;5015762;28;20493;-79
2023/10/10 00:50:56;;;;;;;9.00;7.50;;;15.50;96.00;;;;;;5015837;28;20076;-80
2023/10/10 00:53:22;;;;;;;9.73;8.40;;;15.50;96.00;;;;;;5017275;28;20037;-81
2023/10/10 00:55:57;;;;;;;8.90;7.00;;;15.50;96.00;;;;;;5005482;28;20088;-80
2023/10/10 00:58:39;;;;;;;12.70;7.55;;;15.50;96.00;;;;;;5003334;28;20552;-79
2023/10/10 01:01:19;;;;;;;10.68;6.90;;;15.50;96.00;;;;;;5003593;28;20073;-81
2023/10/10 01:03:50;;;;;;;15.02;7.60;;;15.40;96.10;;;;;;5018635;28;20077;-82
2023/10/10 01:06:26;;;;;;;11.65;8.07;;;15.40;96.10;;;;;;4984816;28;20482;-81
2023/10/10 01:08:55;;;;;;;13.82;7.35;;;15.40;96.20;;;;;;5017579;28;20053;-80
2023/10/10 01:11:22;;;;;;;10.70;7.75;;;15.30;96.30;;;;;;5002261;28;20045;-82
2023/10/10 01:13:50;;;;;;;10.32;7.30;;;15.30;96.30;;;;;;5015876;28;20383;-82
2023/10/10 01:16:17;;;;;;;14.07;7.47;;;15.20;96.20;;;;;;5015614;28;20041;-84
2023/10/10 01:18:51;;;;;;;14.52;7.40;;;15.20;96.30;;;;;;5015680;28;20041;-83
2023/10/10 01:21:28;;;;;;;12.38;8.43;;;15.20;96.20;;;;;;4985088;28;20072;-83
2023/10/10 01:23:58;;;;;;;10.65;7.30;;;15.20;96.30;;;;;;4998915;28;20056;-80
2023/10/10 01:26:28;;;;;;;15.27;8.18;;;15.10;96.20;;;;;;4984204;28;20056;-81
2023/10/10 01:28:54;;;;;;;12.10;7.90;;;15.10;96.30;;;;;;4999842;28;20048;-81
2023/10/10 01:31:20;;;;;;;13.40;8.13;;;15.10;96.30;;;;;;5015173;28;20046;-81
2023/10/10 01:33:49;;;;;;;9.25;6.80;;;15.10;96.40;;;;;;4982542;28;20099;-83
2023/10/10 01:36:22;;;;;;;15.80;7.43;;;15.10;96.40;;;;;;5015612;28;20402;-80
2023/10/10 01:39:19;;;;;;;14.07;8.40;;;15.10;96.50;;;;;;4984907;28;20076;-81
2023/10/10 01:41:48;;;;;;;12.68;7.68;;;15.10;96.80;;;;;;4998859;28;20099;-84
2023/10/10 01:44:32;;;;;;;14.45;8.25;;;15.10;96.70;;;;;;5015291;28;20433;-82
2023/10/10 01:46:59;;;;;;;11.70;6.75;;;15.10;96.70;;;;;;5015199;28;20053;-83
2023/10/10 01:49:29;;;;;;;9.98;6.68;;;15.10;96.80;;;;;;4999347;28;20048;-83
2023/10/10 01:51:58;;;;;;;11.57;7.88;;;15.10;96.70;;;;;;4983259;28;20048;-80
2023/10/10 01:54:41;;;;;;;16.23;8.45;;;15.10;96.60;;;;;;4999243;28;20042;-83
2023/10/10 01:57:09;;;;;;;12.02;7.93;;;15.10;96.70;;;;;;5015101;28;20044;-79
2023/10/10 01:59:37;;;;;;;14.50;8.10;;;15.10;96.60;;;;;;4998675;28;20053;-81
2023/10/10 02:02:10;;;;;;;12.00;7.22;;;15.10;96.80;;;;;;4998535;28;20046;-82
2023/10/10 02:04:36;;;;;;;13.65;8.60;;;15.20;96.80;;;;;;4998599;28;20044;-81
2023/10/10 02:10:26;;;;;;;13.00;8.68;;;15.20;96.60;;;;;;4972165;28;20537;-81
2023/10/10 02:12:46;;;;;;;12.18;8.13;;;15.20;97.10;;;;;;5014535;28;20474;-83
2023/10/10 02:15:15;;;;;;;12.40;8.60;;;15.20;97.20;;;;;;5014771;28;20128;-82
2023/10/10 02:18:38;;;;;;;15.15;9.63;;;15.20;97.20;;;;;;5016014;28;20052;-80
2023/10/10 02:22:54;;;;;;;14.55;9.20;;;15.10;97.40;;;;;;4998505;28;20060;-79
2023/10/10 02:25:37;;;;;;;15.27;10.18;;;15.10;97.40;;;;;;4999737;28;20049;-82
2023/10/10 02:28:08;;;;;;;13.35;9.15;;;15.10;97.50;;;;;;5019300;28;20041;-81
2023/10/10 02:30:34;;;;;;;14.52;9.57;;;15.10;97.30;;;;;;5020558;28;20547;-82
2023/10/10 02:35:56;;;;;;;16.00;9.82;;;15.10;97.30;;;;;;5021130;28;20493;-82
2023/10/10 02:38:34;;;;;;;21.67;10.80;;;15.10;97.20;;;;;;5024120;28;20077;-84
2023/10/10 02:41:22;;;;;;;22.55;10.73;;;15.10;97.30;;;;;;5021430;28;20038;-82
2023/10/10 02:46:35;;;;;;;19.40;11.43;;;15.20;97.20;;;;;;5018719;28;20049;-82
2023/10/10 02:49:22;;;;;;;19.83;11.00;;;15.20;97.30;;;;;;5001696;28;20045;-80
2023/10/10 02:51:49;;;;;;;18.42;11.00;;;15.20;97.10;;;;;;5003888;28;20401;-78
2023/10/10 02:57:46;;;;;;;18.50;11.63;;;15.20;97.40;;;;;;5019743;28;20092;-81
2023/10/10 02:59:59;;;;;;;17.55;10.82;;;15.20;97.30;;;;;;5010919;28;20080;-83
2023/10/10 03:02:30;;;;;;;19.17;11.38;;;15.20;97.30;;;;;;5002844;28;20045;-83
2023/10/10 03:07:29;;;;;;;22.13;12.00;;;15.30;97.30;;;;;;5018522;28;20056;-83
2023/10/10 03:12:43;;;;;;;18.35;12.38;;;15.20;97.50;;;;;;5017544;28;20048;-80
2023/10/10 03:15:28;;;;;;;23.50;13.02;;;15.30;97.40;;;;;;4969589;28;20052;-81
2023/10/10 03:19:12;;;;;;;17.52;11.98;;;15.20;97.40;;;;;;5003803;28;20049;-83
2023/10/10 03:21:12;;;;;;;25.00;12.95;;;15.30;97.20;;;;;;5004119;28;20106;-79
2023/10/10 03:23:53;;;;;;;20.27;13.00;;;15.30;97.30;;;;;;5017249;28;20103;-82
2023/10/10 03:26:35;;;;;;;22.90;13.65;;;15.30;97.30;;;;;;5003446;28;20576;-83
2023/10/10 03:29:11;;;;;;;20.63;13.15;;;15.30;97.40;;;;;;5003642;28;20099;-81
2023/10/10 03:31:48;;;;;;;20.42;13.48;;;15.30;97.30;;;;;;5001439;28;20041;-80
2023/10/10 03:37:02;;;;;;;22.65;14.48;;;15.30;97.40;;;;;;5016999;28;20048;-81
2023/10/10 03:39:53;;;;;;;25.63;14.52;;;15.40;97.60;;;;;;5017157;28;20502;-82
2023/10/10 05:23:53;;;;;;;52.28;28.33;;;15.00;98.00;;;;;;4982202;28;20398;-78
2023/10/10 05:26:19;;;;;;;63.33;30.63;;;15.00;98.10;;;;;;4995595;28;20052;-81
2023/10/10 05:28:48;;;;;;;57.03;30.67;;;15.00;98.20;;;;;;4979417;28;20042;-81
2023/10/10 05:31:19;;;;;;;60.00;31.48;;;15.00;98.10;;;;;;4995582;28;20128;-80
2023/10/10 05:33:47;;;;;;;61.38;33.30;;;15.00;98.30;;;;;;4995579;28;20044;-81
2023/10/10 05:36:13;;;;;;;57.00;32.35;;;15.00;98.20;;;;;;4982795;28;20037;-78
2023/10/10 05:38:39;;;;;;;68.18;34.35;;;15.00;98.30;;;;;;4998219;28;20042;-80
2023/10/10 05:41:12;;;;;;;63.42;34.28;;;15.00;98.50;;;;;;4986117;28;20042;-82
2023/10/10 05:43:39;;;;;;;64.45;32.13;;;15.00;98.40;;;;;;4998952;28;20049;-81
2023/10/10 05:46:05;;;;;;;57.53;29.90;;;15.10;98.30;;;;;;4996060;28;20054;-83
2023/10/10 05:48:32;;;;;;;66.57;33.38;;;15.00;98.20;;;;;;4948313;28;20059;-79
2023/10/10 05:51:03;;;;;;;71.80;34.47;;;15.00;98.30;;;;;;4995718;28;20049;-77
2023/10/10 05:53:33;;;;;;;74.32;34.30;;;15.00;98.30;;;;;;4995090;28;20063;-83
2023/10/10 05:55:59;;;;;;;68.35;32.13;;;15.00;98.30;;;;;;4978900;28;20044;-79
2023/10/10 05:58:26;;;;;;;69.35;32.40;;;15.00;98.30;;;;;;4995026;28;20033;-80
2023/10/10 06:00:53;;;;;;;75.60;32.80;;;15.00;98.50;;;;;;4997567;28;20053;-82
2023/10/10 06:03:21;;;;;;;66.82;32.10;;;15.00;98.50;;;;;;4999165;28;20042;-81
2023/10/10 06:05:49;;;;;;;60.15;31.17;;;15.00;98.50;;;;;;4983057;28;20046;-80
2023/10/10 06:08:16;;;;;;;66.07;30.73;;;15.00;98.50;;;;;;4999345;28;20128;-79
2023/10/10 06:10:42;;;;;;;65.75;31.08;;;15.00;98.50;;;;;;4983011;28;20081;-81
2023/10/10 06:13:10;;;;;;;63.15;31.65;;;15.00;98.50;;;;;;4998985;28;20542;-77
2023/10/10 06:15:36;;;;;;;58.45;30.45;;;15.00;98.60;;;;;;4982778;28;20038;-81
2023/10/10 06:18:11;;;;;;;53.90;29.55;;;15.00;98.70;;;;;;4998027;28;20124;-80
2023/10/10 06:20:41;;;;;;;57.65;31.15;;;15.00;98.60;;;;;;4991408;28;20127;-77
2023/10/10 06:23:14;;;;;;;48.53;27.42;;;15.00;98.50;;;;;;5003260;28;20060;-79
2023/10/10 06:25:40;;;;;;;56.20;28.45;;;15.10;98.50;;;;;;4991438;28;20049;-79
2023/10/10 06:28:18;;;;;;;50.00;24.45;;;15.10;98.70;;;;;;4995736;28;20490;-80
2023/10/10 06:30:44;;;;;;;54.72;30.90;;;15.10;98.60;;;;;;5010847;28;20052;-80
2023/10/10 06:33:15;;;;;;;47.28;27.35;;;15.20;98.60;;;;;;4979255;28;20033;-80
2023/10/10 06:35:47;;;;;;;53.63;28.45;;;15.20;98.70;;;;;;5017356;28;20463;-78
2023/10/10 06:38:12;;;;;;;55.83;29.83;;;15.20;98.50;;;;;;5001927;28;20123;-78
2023/10/10 06:40:52;;;;;;;51.65;30.65;;;15.20;98.70;;;;;;5018528;28;20080;-82
2023/10/10 06:43:24;;;;;;;58.70;31.67;;;15.20;98.70;;;;;;5018484;28;20092;-80
2023/10/10 06:45:56;;;;;;;59.03;33.03;;;15.30;98.60;;;;;;5001818;28;20046;-81
2023/10/10 06:48:22;;;;;;;58.05;32.88;;;15.30;98.80;;;;;;5002038;28;20401;-81
2023/10/10 06:50:49;;;;;;;61.38;33.75;;;15.30;98.80;;;;;;5001584;28;20052;-80
2023/10/10 06:53:36;;;;;;;68.60;33.72;;;15.30;98.80;;;;;;5018172;28;20048;-77
2023/10/10 06:56:14;;;;;;;59.17;32.88;;;15.30;98.70;;;;;;5018944;28;20381;-76
2023/10/10 06:58:44;;;;;;;58.75;34.08;;;15.30;98.70;;;;;;5019565;28;20077;-80
2023/10/10 07:01:19;;;;;;;58.75;34.83;;;15.30;98.70;;;;;;5017898;28;20132;-80
2023/10/10 07:03:54;;;;;;;61.65;34.00;;;15.30;98.60;;;;;;5001740;28;20371;-80
2023/10/10 07:06:23;;;;;;;57.97;34.58;;;15.40;98.70;;;;;;5001564;28;20041;-80
2023/10/10 07:09:14;;;;;;;58.10;34.17;;;15.40;98.70;;;;;;5020037;28;20041;-80
2023/10/10 07:11:40;;;;;;;53.78;32.35;;;15.40;98.60;;;;;;5017153;28;20417;-78
2023/10/10 07:14:11;;;;;;;52.95;32.50;;;15.50;98.60;;;;;;5017579;28;20045;-84
2023/10/10 07:16:42;;;;;;;56.72;33.85;;;15.50;98.50;;;;;;5018368;28;20048;-80
2023/10/10 07:19:29;;;;;;;60.95;32.92;;;15.50;98.60;;;;;;5017963;28;20045;-77
2023/10/10 07:21:54;;;;;;;53.83;32.75;;;15.50;98.50;;;;;;4988285;28;20064;-83
2023/10/10 07:24:25;;;;;;;60.08;35.92;;;15.60;98.40;;;;;;5001097;28;20489;-80
2023/10/10 07:27:05;;;;;;;60.03;34.55;;;15.60;98.50;;;;;;5001151;28;20037;-80
2023/10/10 07:29:57;;;;;;;58.03;34.08;;;15.70;98.40;;;;;;5017419;28;20045;-79
2023/10/10 07:32:28;;;;;;;51.08;33.78;;;15.80;98.30;;;;;;5017394;28;20045;-80
2023/10/10 07:34:54;;;;;;;53.03;33.13;;;15.80;98.30;;;;;;5017294;28;20034;-81
2023/10/10 07:37:22;;;;;;;60.65;36.00;;;15.90;98.20;;;;;;5000912;28;20037;-81
2023/10/10 07:39:55;;;;;;;53.92;32.92;;;16.00;98.20;;;;;;5002147;28;20045;-81
2023/10/10 07:42:29;;;;;;;63.38;35.35;;;16.00;98.00;;;;;;5000767;28;20037;-82
2023/10/10 07:44:58;;;;;;;55.83;34.22;;;16.00;97.70;;;;;;5017157;28;20441;-81
2023/10/10 07:47:27;;;;;;;58.05;35.10;;;16.00;97.70;;;;;;5017038;28;20041;-79
2023/10/10 07:49:59;;;;;;;57.25;34.53;;;16.10;97.80;;;;;;5000671;28;20124;-80
2023/10/10 07:52:25;;;;;;;52.53;33.67;;;16.10;97.60;;;;;;5001713;28;20049;-79
2023/10/10 07:54:52;;;;;;;61.08;35.65;;;16.20;97.60;;;;;;5017847;28;20136;-78
2023/10/10 07:57:28;;;;;;;53.03;33.65;;;16.20;97.30;;;;;;5016835;28;20404;-78
2023/10/10 07:59:58;;;;;;;57.63;35.10;;;16.20;97.20;;;;;;5017087;28;20084;-83
2023/10/10 08:02:34;;;;;;;53.45;33.72;;;16.30;96.90;;;;;;5019008;28;20037;-79
2023/10/10 08:05:01;;;;;;;56.65;36.47;;;16.30;97.10;;;;;;5017550;28;20045;-78
2023/10/10 08:07:28;;;;;;;50.28;32.92;;;16.30;97.10;;;;;;5008145;28;20069;-82
2023/10/10 08:12:39;;;;;;;56.20;36.15;;;16.30;96.80;;;;;;5015263;28;20490;-82
2023/10/10 08:15:24;;;;;;;55.55;36.75;;;16.30;96.50;;;;;;5011720;28;20103;-81
2023/10/10 08:17:54;;;;;;;50.33;34.67;;;16.30;96.20;;;;;;5001142;28;20096;-80
2023/10/10 08:22:59;;;;;;;52.53;35.67;;;16.30;96.20;;;;;;5012737;28;20065;-78
2023/10/10 08:25:28;;;;;;;47.70;33.45;;;16.30;95.70;;;;;;4998206;28;20128;-79
2023/10/10 08:27:55;;;;;;;51.55;34.75;;;16.30;95.90;;;;;;5014255;28;20045;-78
2023/10/10 08:30:25;;;;;;;61.00;37.40;;;16.40;95.90;;;;;;5013334;28;20393;-79
2023/10/10 08:33:01;;;;;;;49.70;34.58;;;16.40;95.80;;;;;;4989689;28;20045;-77
2023/10/10 08:35:29;;;;;;;60.55;37.08;;;16.50;95.70;;;;;;5012186;28;20508;-81
2023/10/10 08:37:56;;;;;;;51.03;35.00;;;16.40;95.50;;;;;;5014559;28;20536;-81
2023/10/10 08:40:23;;;;;;;57.33;38.40;;;16.50;95.50;;;;;;5002559;28;20099;-81
2023/10/10 08:42:52;;;;;;;53.72;37.80;;;16.50;95.50;;;;;;4996631;28;20059;-80
2023/10/10 08:45:25;;;;;;;54.78;37.65;;;16.50;95.10;;;;;;4995909;28;20128;-77
2023/10/10 08:48:04;;;;;;;54.42;35.75;;;16.50;95.20;;;;;;5013317;28;20052;-79
2023/10/10 08:50:34;;;;;;;54.38;36.13;;;16.60;94.90;;;;;;5015064;28;20104;-78
2023/10/10 08:53:00;;;;;;;51.63;36.65;;;16.70;95.20;;;;;;4997291;28;20050;-81
2023/10/10 08:55:27;;;;;;;52.50;36.28;;;16.80;95.10;;;;;;5011940;28;20413;-81
2023/10/10 08:57:55;;;;;;;53.75;36.72;;;16.90;95.00;;;;;;5011518;28;20050;-79
2023/10/10 09:00:28;;;;;;;55.20;36.90;;;16.90;94.20;;;;;;4996571;28;20049;-78
2023/10/10 09:02:56;;;;;;;48.90;35.80;;;17.00;93.50;;;;;;4996299;28;20573;-82
2023/10/10 09:05:24;;;;;;;58.05;37.47;;;17.10;93.80;;;;;;4981242;28;20052;-79
2023/10/10 09:07:53;;;;;;;52.20;35.40;;;17.20;94.00;;;;;;4996126;28;20037;-83
2023/10/10 09:10:28;;;;;;;49.30;36.47;;;17.20;94.00;;;;;;5005857;28;20082;-79
2023/10/10 09:13:01;;;;;;;47.80;33.30;;;17.30;92.70;;;;;;4994589;28;20122;-81
2023/10/10 09:15:27;;;;;;;51.05;35.53;;;17.30;92.50;;;;;;4993622;28;20374;-82
2023/10/10 09:18:22;;;;;;;50.17;34.22;;;17.40;92.20;;;;;;4999517;28;20397;-79
2023/10/10 09:20:48;;;;;;;55.92;37.03;;;17.40;91.60;;;;;;5015713;28;20053;-79
2023/10/10 09:23:28;;;;;;;49.72;36.15;;;17.40;91.80;;;;;;5012206;28;20052;-81
2023/10/10 09:28:55;;;;;;;;;;;17.50;91.30;;;;;;5013851;28;20049;-81
2023/10/10 09:31:24;;;;;;;48.55;34.85;;;17.60;91.10;;;;;;5012863;28;19917;-79
2023/10/10 09:33:54;;;;;;;45.80;33.05;;;17.70;90.90;;;;;;5012214;28;20473;-83
2023/10/10 09:36:26;;;;;;;43.35;33.22;;;17.70;91.00;;;;;;5001785;28;20041;-79
2023/10/10 09:39:26;;;;;;;50.50;33.00;;;17.80;90.60;;;;;;5002472;28;20052;-80
2023/10/10 09:44:53;;;;;;;49.75;34.08;;;17.70;90.20;;;;;;5018322;28;20049;-82
2023/10/10 09:52:58;;;;;;;47.22;34.33;;;17.90;89.80;;;;;;5016491;28;20463;-78
2023/10/10 10:00:45;;;;;;;53.33;33.60;;;18.20;90.00;;;;;;5008481;28;20008;-80
2023/10/10 10:06:19;;;;;;;46.97;33.60;;;18.50;89.50;;;;;;5016682;28;20107;-79
2023/10/10 10:09:32;;;;;;;44.75;32.90;;;18.50;88.70;;;;;;5002059;28;20045;-80
2023/10/10 10:12:41;;;;;;;45.00;32.17;;;18.60;89.10;;;;;;5035918;28;20045;-79
2023/10/10 10:15:18;;;;;;;43.00;31.00;;;18.70;88.00;;;;;;5017440;28;20073;-82
2023/10/10 10:23:46;;;;;;;39.22;26.70;;;18.90;87.50;;;;;;4995446;28;20505;-79
2023/10/10 10:26:31;;;;;;;43.33;29.98;;;18.90;87.50;;;;;;4998178;28;20084;-80
2023/10/10 10:28:58;;;;;;;36.97;28.30;;;19.00;87.30;;;;;;4982303;28;20038;-82
2023/10/10 10:31:29;;;;;;;38.65;28.73;;;19.10;87.00;;;;;;4982520;28;20104;-81
2023/10/10 10:34:20;;;;;;;39.35;27.30;;;19.20;87.00;;;;;;4998413;28;20139;-81
2023/10/10 10:37:20;;;;;;;37.97;28.38;;;19.10;86.60;;;;;;4980495;28;20040;-79
2023/10/10 10:42:34;;;;;;;38.92;29.75;;;19.10;86.60;;;;;;4998307;28;20805;-80
2023/10/10 10:45:24;;;;;;;43.97;28.63;;;19.20;86.30;;;;;;4982059;28;20038;-84
2023/10/10 10:47:54;;;;;;;40.47;29.35;;;19.30;86.50;;;;;;4994502;28;20042;-83
2023/10/10 10:50:40;;;;;;;40.83;26.75;;;19.40;86.00;;;;;;4997156;28;20482;-83
2023/10/10 10:53:20;;;;;;;36.47;27.35;;;19.50;85.40;;;;;;5011437;28;20073;-84
2023/10/10 10:56:06;;;;;;;37.20;27.05;;;19.70;85.60;;;;;;4978693;28;20034;-83
2023/10/10 11:01:26;;;;;;;40.97;29.45;;;19.80;85.00;;;;;;4995575;28;20038;-83
2023/10/10 11:03:53;;;;;;;39.58;29.13;;;19.90;85.20;;;;;;4979743;28;20046;-80
2023/10/10 11:06:24;;;;;;;40.95;28.40;;;19.90;84.90;;;;;;4995539;28;20124;-78
2023/10/10 11:14:09;;;;;;;34.22;27.63;;;20.50;83.70;;;;;;4996357;28;20553;-80
2023/10/10 11:16:39;;;;;;;31.55;23.33;;;20.70;82.30;;;;;;4994907;28;20042;-79
2023/10/10 11:22:01;;;;;;;36.58;25.60;;;20.90;82.60;;;;;;4995337;28;20057;-78
2023/10/10 11:24:32;;;;;;;34.38;25.30;;;21.10;82.00;;;;;;4981690;28;20046;-79
2023/10/10 11:30:00;;;;;;;37.15;26.67;;;21.40;81.60;;;;;;4997234;28;20064;-80
2023/10/10 11:32:36;;;;;;;36.47;24.87;;;21.50;81.10;;;;;;4999290;28;20077;-81
2023/10/10 11:35:17;;;;;;;34.28;26.20;;;21.60;80.60;;;;;;4995548;28;20053;-81
2023/10/10 11:37:59;;;;;;;36.92;23.45;;;21.70;80.40;;;;;;4979964;28;20073;-80
2023/10/10 11:43:06;;;;;;;30.10;23.20;;;21.90;79.50;;;;;;4998524;28;20050;-82
2023/10/10 11:45:40;;;;;;;35.45;23.40;;;21.90;79.60;;;;;;5016532;28;20044;-79
2023/10/10 11:48:14;;;;;;;28.80;21.38;;;21.90;79.50;;;;;;4998548;28;20117;-83
2023/10/10 11:50:51;;;;;;;30.15;20.70;;;21.90;79.00;;;;;;5014488;28;20457;-79
2023/10/10 11:53:23;;;;;;;34.47;24.13;;;21.90;79.30;;;;;;4996147;28;20553;-80
2023/10/10 11:55:52;;;;;;;31.77;21.45;;;21.60;79.80;;;;;;4995508;28;20030;-82
2023/10/10 11:58:35;;;;;;;30.15;20.67;;;21.80;80.20;;;;;;4996307;28;20046;-84
2023/10/10 12:01:10;;;;;;;28.27;21.67;;;21.80;79.90;;;;;;4979754;28;20136;-81
2023/10/10 12:06:05;;;;;;;34.05;23.52;;;21.70;79.60;;;;;;4997457;28;20048;-84
2023/10/10 12:08:31;;;;;;;32.45;21.73;;;21.50;80.30;;;;;;4964828;28;20509;-81
2023/10/10 12:11:42;;;;;;;28.52;22.08;;;21.50;80.70;;;;;;4980494;28;20030;-81
2023/10/10 12:13:44;;;;;;;35.55;21.70;;;21.30;80.60;;;;;;4985948;28;20046;-77
2023/10/10 12:16:10;;;;;;;31.48;20.70;;;21.10;81.10;;;;;;4997967;28;20033;-79
2023/10/10 12:18:49;;;;;;;29.98;21.08;;;21.00;81.80;;;;;;4997893;28;20096;-80
2023/10/10 12:21:22;;;;;;;37.92;25.02;;;20.90;82.30;;;;;;4997842;28;20046;-79
2023/10/10 12:23:55;;;;;;;32.55;21.75;;;20.70;82.70;;;;;;4997877;28;20050;-80
2023/10/10 12:26:24;;;;;;;33.80;23.15;;;20.60;83.00;;;;;;4997515;28;20048;-79
2023/10/10 12:28:52;;;;;;;33.22;23.38;;;20.50;83.40;;;;;;4980877;28;20046;-83
2023/10/10 12:31:22;;;;;;;38.03;24.42;;;20.60;83.60;;;;;;4980623;28;20049;-80
2023/10/10 12:33:48;;;;;;;32.42;22.77;;;20.70;83.40;;;;;;4998194;28;20128;-80
2023/10/10 12:36:15;;;;;;;30.52;22.48;;;20.70;83.50;;;;;;4981677;28;20041;-78
2023/10/10 12:38:41;;;;;;;38.67;22.77;;;20.60;83.50;;;;;;4998814;28;20496;-79
2023/10/10 12:41:13;;;;;;;39.45;26.08;;;20.60;83.90;;;;;;4994270;28;20038;-79
2023/10/10 12:43:40;;;;;;;34.08;24.33;;;20.50;83.70;;;;;;4997986;28;20111;-79
2023/10/10 12:46:09;;;;;;;37.78;26.40;;;20.50;84.10;;;;;;5000242;28;20084;-80
2023/10/10 12:48:41;;;;;;;39.28;25.77;;;20.40;84.20;;;;;;5000142;28;20077;-84
2023/10/10 12:51:09;;;;;;;36.08;25.02;;;20.30;84.30;;;;;;5002001;28;20073;-81
2023/10/10 12:53:39;;;;;;;43.13;27.83;;;20.30;84.70;;;;;;4997824;28;20049;-84
2023/10/10 12:56:16;;;;;;;44.80;29.80;;;20.20;84.90;;;;;;4997142;28;20034;-84
2023/10/10 12:58:51;;;;;;;43.25;31.65;;;20.20;85.40;;;;;;4996459;28;20042;-82
2023/10/10 13:01:23;;;;;;;43.25;32.38;;;20.20;85.60;;;;;;4996375;28;20045;-80
2023/10/10 13:03:49;;;;;;;40.30;30.25;;;20.20;85.80;;;;;;4979994;28;20042;-81
2023/10/10 13:06:14;;;;;;;46.72;31.88;;;20.20;85.80;;;;;;4980221;28;20041;-87
2023/10/10 13:08:49;;;;;;;40.28;30.73;;;20.40;85.60;;;;;;4980143;28;20111;-82
2023/10/10 13:11:16;;;;;;;45.83;31.60;;;20.40;85.80;;;;;;4996302;28;20482;-80
2023/10/10 13:13:45;;;;;;;44.28;32.38;;;20.50;85.50;;;;;;4996567;28;20490;-81
2023/10/10 13:19:09;;;;;;;43.10;34.55;;;20.40;85.40;;;;;;4996720;28;20042;-82
2023/10/10 13:21:42;;;;;;;50.67;34.60;;;20.40;85.40;;;;;;5011556;28;20084;-82
2023/10/10 13:24:13;;;;;;;47.73;35.47;;;20.20;85.40;;;;;;5032607;28;20502;-86
2023/10/10 13:26:49;;;;;;;43.33;35.17;;;20.20;85.70;;;;;;5015899;28;20053;-82
2023/10/10 13:29:16;;;;;;;59.38;37.95;;;20.00;86.20;;;;;;4999564;28;20046;-82
2023/10/10 13:31:46;;;;;;;46.60;35.13;;;20.00;86.30;;;;;;5032386;28;20041;-79
2023/10/10 13:34:13;;;;;;;53.00;39.90;;;20.00;86.50;;;;;;5015725;28;20148;-83
2023/10/10 13:36:39;;;;;;;52.50;38.95;;;20.00;86.30;;;;;;5015621;28;20501;-84
2023/10/10 13:39:09;;;;;;;54.60;40.60;;;20.00;86.40;;;;;;5015651;28;20072;-83
2023/10/10 13:41:37;;;;;;;53.58;40.70;;;20.00;86.50;;;;;;4999352;28;20132;-82
2023/10/10 13:44:04;;;;;;;57.78;43.72;;;19.90;86.70;;;;;;5032062;28;20045;-81
2023/10/10 13:46:34;;;;;;;55.47;43.58;;;19.90;86.60;;;;;;5015850;28;20030;-87
2023/10/10 13:49:03;;;;;;;55.33;41.42;;;19.90;86.70;;;;;;5015648;28;20045;-80
2023/10/10 13:51:39;;;;;;;56.65;42.10;;;19.90;86.70;;;;;;4999412;28;20049;-79
2023/10/10 13:54:05;;;;;;;56.15;42.35;;;19.80;86.90;;;;;;5031864;28;20049;-82
2023/10/10 13:56:31;;;;;;;57.35;42.10;;;19.80;86.70;;;;;;5015362;28;20041;-82
2023/10/10 13:59:00;;;;;;;59.97;45.08;;;19.80;86.90;;;;;;4999093;28;20034;-85
2023/10/10 14:01:29;;;;;;;54.13;42.17;;;19.80;86.90;;;;;;5015392;28;20045;-82
2023/10/10 14:06:47;;;;;;;54.53;40.22;;;20.00;86.40;;;;;;5015589;28;20052;-82
2023/10/10 14:09:22;;;;;;;51.72;41.28;;;20.00;86.60;;;;;;5031988;28;20489;-84
2023/10/10 14:11:49;;;;;;;52.83;39.50;;;20.00;86.30;;;;;;5031942;28;20052;-86
2023/10/10 14:14:15;;;;;;;51.10;38.58;;;20.00;86.10;;;;;;5032367;28;20052;-83
2023/10/10 14:16:41;;;;;;;51.70;39.40;;;20.10;86.10;;;;;;5015448;28;20120;-81
2023/10/10 14:19:07;;;;;;;52.58;36.78;;;20.10;85.90;;;;;;4999689;28;20044;-83
2023/10/10 14:21:32;;;;;;;52.38;39.75;;;20.20;85.60;;;;;;5001207;28;20050;-84
2023/10/10 14:24:08;;;;;;;51.20;38.58;;;20.20;85.30;;;;;;5000125;28;20050;-84
2023/10/10 14:26:37;;;;;;;48.42;38.05;;;20.20;85.40;;;;;;4985118;28;20046;-84
2023/10/10 14:29:05;;;;;;;47.65;36.63;;;20.20;85.20;;;;;;4999553;28;20066;-82
2023/10/10 14:31:33;;;;;;;53.17;38.25;;;20.20;85.40;;;;;;4983573;28;20041;-81
2023/10/10 14:34:00;;;;;;;47.55;38.33;;;20.20;85.50;;;;;;4999351;28;20131;-81
2023/10/10 14:36:29;;;;;;;47.78;39.83;;;20.10;85.40;;;;;;4999658;28;20053;-85
2023/10/10 14:38:57;;;;;;;51.88;39.53;;;20.10;85.60;;;;;;4982921;28;20049;-82
2023/10/10 14:41:29;;;;;;;55.13;38.05;;;20.10;85.50;;;;;;4983020;28;20048;-84
2023/10/10 14:44:00;;;;;;;47.45;36.38;;;20.10;85.60;;;;;;4996208;28;20042;-83
2023/10/10 14:46:31;;;;;;;50.05;38.63;;;20.10;85.60;;;;;;4979510;28;20038;-84
2023/10/10 14:49:05;;;;;;;52.00;40.55;;;20.00;85.80;;;;;;4995967;28;20049;-84
2023/10/10 14:51:35;;;;;;;47.72;37.13;;;19.90;86.00;;;;;;4996317;28;20042;-83
2023/10/10 14:54:11;;;;;;;49.65;38.60;;;19.80;86.10;;;;;;4995885;28;20128;-84
2023/10/10 14:56:39;;;;;;;53.83;40.03;;;19.80;86.30;;;;;;4994995;28;20580;-81
2023/10/10 14:59:10;;;;;;;45.78;38.00;;;19.70;86.50;;;;;;4988732;28;20034;-83
2023/10/10 15:01:36;;;;;;;49.15;35.70;;;19.70;86.30;;;;;;4995586;28;20042;-78
2023/10/10 15:04:03;;;;;;;51.42;36.58;;;19.60;86.40;;;;;;4985755;28;20048;-82
2023/10/10 15:06:29;;;;;;;47.95;36.15;;;19.60;86.60;;;;;;4978955;28;20037;-85
2023/10/10 15:08:55;;;;;;;44.30;33.63;;;19.50;86.90;;;;;;4974622;28;20188;-85
2023/10/10 15:11:28;;;;;;;44.00;34.63;;;19.60;86.80;;;;;;4987127;28;20572;-84
2023/10/10 15:13:58;;;;;;;47.15;34.67;;;19.50;87.00;;;;;;4995037;28;20476;-86
2023/10/10 15:16:27;;;;;;;40.97;33.55;;;19.40;87.30;;;;;;4964040;28;20046;-80
2023/10/10 15:18:53;;;;;;;41.42;32.47;;;19.40;86.90;;;;;;4983089;28;20129;-85
2023/10/10 15:21:23;;;;;;;46.85;34.53;;;19.50;87.10;;;;;;4996973;28;20061;-83
2023/10/10 15:23:48;;;;;;;46.20;33.72;;;19.50;87.00;;;;;;4979762;28;20092;-80
2023/10/10 15:26:18;;;;;;;44.80;32.58;;;19.50;87.10;;;;;;4984744;28;20050;-80
2023/10/10 15:28:44;;;;;;;46.58;33.88;;;19.50;87.00;;;;;;4982895;28;20091;-81
2023/10/10 15:31:11;;;;;;;41.60;32.70;;;19.40;87.10;;;;;;4995848;28;20042;-84
2023/10/10 15:33:43;;;;;;;47.50;33.75;;;19.40;87.30;;;;;;4979432;28;20490;-84
2023/10/10 15:36:11;;;;;;;43.90;31.92;;;19.40;87.50;;;;;;4995013;28;20049;-84
2023/10/10 15:38:38;;;;;;;42.08;32.42;;;19.40;87.50;;;;;;4996327;28;20077;-82
2023/10/10 15:41:19;;;;;;;42.65;31.10;;;19.40;87.50;;;;;;4994126;28;20100;-82
2023/10/10 15:43:49;;;;;;;40.25;32.45;;;19.40;87.50;;;;;;4990187;28;20050;-81
2023/10/10 15:46:25;;;;;;;43.33;30.92;;;19.40;87.60;;;;;;4977566;28;20050;-83
2023/10/10 15:48:52;;;;;;;42.88;32.35;;;19.40;87.30;;;;;;4978641;28;20038;-83
2023/10/10 15:51:22;;;;;;;41.05;31.27;;;19.40;87.60;;;;;;4979457;28;20045;-83
2023/10/10 15:53:49;;;;;;;40.42;30.33;;;19.30;87.90;;;;;;4996116;28;20049;-80